Terminal Aerodrome Forecast
Issued by NWS

Home | Current Version | Previous Version | Text Only | Print | Product List | Glossary On
Versions: 1 2 3 4 5 6 7 8 9 10 11 12 13 14 15 16
000
FTUS45 KABQ 311200 AAA
TAFGUP
TAF AMD
KGUP 311253Z 3113/0112 05006KT P6SM SCT015 OVC035
      TEMPO 3113/3116 4SM -SN BR OVC015
     FM311600 VRB04KT 5SM -RASN BR OVC025
     FM311900 24007KT P6SM -RA BKN035 OVC050
     FM312300 27010KT P6SM VCSH BKN050 OVC080
     FM010200 VRB03KT P6SM SCT050 BKN100
     FM010800 VRB03KT P6SM SCT005 SCT050
      TEMPO 0108/0112 2SM BR BKN005=

USA.gov is the U.S. government's official web portal to all federal, state and local government web resources and services.